Time;durP1;ratioP1;P1;durP2;ratioP2;P2;SDS_P1;SDS_P2;PMS_P1;PMS_P2;Temp;Humidity;BMP_temperature;BMP_pressure;BME280_temperature;BME280_humidity;BME280_pressure;Samples;Min_cycle;Max_cycle;Signal;HPM_P1;HPM_P2
2022/07/26 00:01:21;;;;;;;;;7.00;3.00;;;;;26.00;44.34;99156.13;5046392;28;45484;-56
2022/07/26 00:03:47;;;;;;;;;3.00;3.00;;;;;25.98;44.06;99177.03;5051848;28;45542;-55
2022/07/26 00:06:13;;;;;;;;;4.00;4.00;;;;;25.98;44.24;99152.72;5048602;28;46585;-56
2022/07/26 00:08:38;;;;;;;;;3.00;3.00;;;;;25.98;44.26;99139.22;5052617;28;45388;-55
2022/07/26 00:11:04;;;;;;;;;2.75;2.75;;;;;25.96;44.75;99142.09;5046932;28;45389;-55
2022/07/26 00:13:30;;;;;;;;;1.00;1.00;;;;;25.93;44.89;99144.28;5053037;28;45469;-56
2022/07/26 00:15:56;;;;;;;;;3.50;3.50;;;;;25.89;44.61;99143.72;5046460;28;46082;-56
2022/07/26 00:18:22;;;;;;;;;2.80;2.80;;;;;25.87;44.65;99155.69;5051412;28;45628;-54
2022/07/26 00:20:47;;;;;;;;;3.00;3.00;;;;;25.83;45.17;99160.56;5044803;28;45758;-56
2022/07/26 00:23:13;;;;;;;;;4.00;3.50;;;;;25.82;44.70;99156.16;5054766;28;45388;-55
2022/07/26 00:25:40;;;;;;;;;3.00;3.00;;;;;25.83;44.94;99165.97;5048392;28;45481;-56
2022/07/26 00:28:05;;;;;;;;;2.60;2.60;;;;;25.82;44.53;99152.59;5054932;28;45384;-56
2022/07/26 00:30:31;;;;;;;;;2.00;2.00;;;;;25.81;45.62;99153.63;5045772;28;45456;-57
2022/07/26 00:32:57;;;;;;;;;4.75;3.00;;;;;25.76;45.81;99186.53;5040747;28;45460;-56
2022/07/26 00:35:23;;;;;;;;;2.50;2.50;;;;;25.72;46.17;99163.53;5043982;28;45521;-54
2022/07/26 00:37:48;;;;;;;;;2.00;2.00;;;;;25.66;45.97;99156.88;5054521;28;45350;-55
2022/07/26 00:40:15;;;;;;;;;2.50;2.50;;;;;25.61;46.33;99166.44;5043069;28;45560;-56
2022/07/26 00:42:41;;;;;;;;;2.00;2.00;;;;;25.56;46.52;99176.84;5054162;28;45467;-55
2022/07/26 00:45:08;;;;;;;;;3.25;3.25;;;;;25.53;46.35;99166.34;5049352;28;46506;-55
2022/07/26 00:47:34;;;;;;;;;2.00;2.00;;;;;25.52;46.66;99157.41;5050016;28;45428;-56
2022/07/26 00:50:00;;;;;;;;;2.75;2.00;;;;;25.52;46.41;99153.84;5048505;27;45453;-56
2022/07/26 00:52:25;;;;;;;;;3.00;3.00;;;;;25.50;46.59;99159.41;5048727;28;45428;-56
2022/07/26 00:54:53;;;;;;;;;2.00;2.00;;;;;25.47;46.77;99170.50;5043511;28;45867;-55
2022/07/26 00:57:20;;;;;;;;;4.00;1.60;;;;;25.46;47.19;99168.00;5046832;28;45405;-55
2022/07/26 00:59:46;;;;;;;;;2.00;2.00;;;;;25.43;47.49;99163.75;5048823;28;45511;-54
2022/07/26 01:02:12;;;;;;;;;2.50;1.00;;;;;25.36;47.15;99171.59;5044085;28;45410;-55
2022/07/26 01:04:37;;;;;;;;;2.50;2.25;;;;;25.34;47.90;99173.59;5050188;28;46236;-54
2022/07/26 01:07:03;;;;;;;;;1.75;1.75;;;;;25.32;48.04;99169.34;5039013;28;45420;-55
2022/07/26 01:09:29;;;;;;;;;2.00;2.00;;;;;25.31;48.31;99202.75;5051418;28;45455;-55
2022/07/26 01:11:54;;;;;;;;;2.00;1.50;;;;;25.27;47.83;99155.50;5054212;28;45484;-54
2022/07/26 01:14:21;;;;;;;;;1.75;1.75;;;;;25.25;47.89;99198.84;5052223;28;46161;-55
2022/07/26 01:16:46;;;;;;;;;6.80;2.40;;;;;25.24;47.90;99169.28;5045953;28;45372;-54
2022/07/26 01:19:12;;;;;;;;;3.75;2.50;;;;;25.21;48.00;99164.19;5050178;28;45407;-55
2022/07/26 01:21:37;;;;;;;;;3.25;2.50;;;;;25.21;48.26;99177.69;5045701;28;45539;-54
2022/07/26 01:24:03;;;;;;;;;1.25;1.00;;;;;25.17;48.16;99189.78;5049774;28;48345;-56
2022/07/26 01:26:28;;;;;;;;;1.50;1.50;;;;;25.12;48.73;99168.69;5049461;28;45361;-55
2022/07/26 01:28:54;;;;;;;;;1.50;1.50;;;;;25.08;48.57;99177.22;5051380;28;45546;-55
2022/07/26 01:31:19;;;;;;;;;3.25;3.00;;;;;25.04;48.89;99168.56;5047777;28;45402;-56
2022/07/26 01:33:46;;;;;;;;;2.00;2.00;;;;;25.00;49.28;99183.34;5051899;28;45989;-56
2022/07/26 01:36:11;;;;;;;;;2.80;2.80;;;;;25.00;49.52;99173.41;5045849;28;45506;-56
2022/07/26 01:38:38;;;;;;;;;1.75;1.75;;;;;24.97;49.80;99198.00;5053042;28;45482;-56
2022/07/26 01:41:03;;;;;;;;;2.50;2.50;;;;;24.95;49.71;99202.72;5043924;28;45440;-55
2022/07/26 01:43:29;;;;;;;;;2.75;2.75;;;;;24.90;50.36;99194.19;5052134;28;45646;-56
2022/07/26 01:45:54;;;;;;;;;4.75;2.50;;;;;24.84;50.41;99191.22;5048488;28;45527;-55
2022/07/26 01:48:20;;;;;;;;;3.00;2.75;;;;;24.80;50.62;99181.75;5056732;28;45309;-55
2022/07/26 01:50:45;;;;;;;;;1.00;1.00;;;;;24.75;50.40;99192.13;5052655;28;45382;-55
2022/07/26 01:53:10;;;;;;;;;3.00;1.00;;;;;24.66;51.33;99192.03;5046334;28;45339;-55
2022/07/26 01:55:36;;;;;;;;;2.00;2.00;;;;;24.63;51.64;99175.31;5047228;28;45435;-54
2022/07/26 01:58:05;;;;;;;;;4.00;2.00;;;;;24.62;51.59;99195.19;5049946;28;45422;-55
2022/07/26 02:00:31;;;;;;;;;2.00;2.00;;;;;24.53;52.04;99196.91;5050094;28;45400;-56
2022/07/26 02:02:57;;;;;;;;;0.80;0.80;;;;;24.46;52.56;99176.09;5048492;28;46591;-54
2022/07/26 02:05:22;;;;;;;;;2.00;2.00;;;;;24.41;53.05;99181.94;5047778;28;45389;-54
2022/07/26 02:07:49;;;;;;;;;3.00;3.00;;;;;24.35;53.84;99177.13;5045948;28;45393;-56
2022/07/26 02:10:15;;;;;;;;;6.50;2.50;;;;;24.30;54.10;99184.78;5046928;28;45318;-55
2022/07/26 02:12:40;;;;;;;;;1.25;1.00;;;;;24.24;54.50;99212.34;5057007;28;46187;-56
2022/07/26 02:15:08;;;;;;;;;2.25;2.25;;;;;24.17;54.33;99220.09;5047913;28;45468;-56
2022/07/26 02:17:33;;;;;;;;;1.00;1.00;;;;;24.10;55.09;99189.38;5055243;28;45514;-55
2022/07/26 02:19:59;;;;;;;;;3.00;3.00;;;;;24.04;55.46;99189.94;5050563;28;45565;-56
2022/07/26 02:22:25;;;;;;;;;1.00;1.00;;;;;24.02;54.88;99190.09;5053359;28;45354;-55
2022/07/26 02:24:51;;;;;;;;;1.25;1.25;;;;;23.98;55.25;99191.34;5046322;28;45415;-54
2022/07/26 02:27:16;;;;;;;;;1.50;1.50;;;;;23.91;55.73;99201.03;5056985;28;45425;-55
2022/07/26 02:29:42;;;;;;;;;2.00;2.00;;;;;23.86;57.10;99186.28;5051545;28;45444;-55
2022/07/26 02:32:07;;;;;;;;;1.00;1.00;;;;;23.83;56.81;99197.34;5051423;28;45465;-55
2022/07/26 02:34:33;;;;;;;;;1.25;1.25;;;;;23.78;57.24;99184.31;5049516;28;45446;-56
2022/07/26 02:36:59;;;;;;;;;0.75;0.75;;;;;23.78;56.52;99176.25;5054972;28;45403;-56
2022/07/26 02:39:26;;;;;;;;;3.00;3.00;;;;;23.74;57.62;99185.59;5049832;28;45513;-55
2022/07/26 02:41:55;;;;;;;;;2.00;1.20;;;;;23.72;57.22;99174.13;5050358;28;46398;-54
2022/07/26 02:44:22;;;;;;;;;0.00;0.00;;;;;23.70;57.51;99172.56;5050265;28;45582;-56
2022/07/26 02:46:47;;;;;;;;;2.50;1.00;;;;;23.69;57.44;99189.69;5050517;28;45568;-54
2022/07/26 02:49:13;;;;;;;;;2.00;2.00;;;;;23.67;56.64;99179.06;5051037;28;45435;-54
2022/07/26 02:51:38;;;;;;;;;2.50;1.00;;;;;23.67;57.45;99188.00;5047599;28;46433;-55
2022/07/26 02:54:04;;;;;;;;;2.00;1.50;;;;;23.68;58.09;99180.78;5051998;28;45487;-56
2022/07/26 02:56:29;;;;;;;;;2.00;2.00;;;;;23.67;57.28;99168.31;5045238;28;45484;-54
2022/07/26 02:58:55;;;;;;;;;1.75;1.00;;;;;23.66;57.62;99182.75;5052419;28;45632;-53
2022/07/26 03:01:20;;;;;;;;;1.00;1.00;;;;;23.64;58.17;99165.91;5048622;28;45388;-55
2022/07/26 03:03:46;;;;;;;;;1.00;1.00;;;;;23.61;57.45;99167.06;5054465;28;45558;-56
2022/07/26 03:06:12;;;;;;;;;2.00;2.00;;;;;23.61;57.54;99169.75;5048286;28;45484;-54
2022/07/26 03:08:37;;;;;;;;;2.00;1.00;;;;;23.59;57.76;99170.88;5052863;28;45592;-55
2022/07/26 03:11:03;;;;;;;;;1.00;1.00;;;;;23.59;58.09;99171.72;5053107;28;46211;-54
2022/07/26 03:13:29;;;;;;;;;1.00;1.00;;;;;23.57;57.92;99175.56;5055608;28;45573;-55
2022/07/26 03:15:54;;;;;;;;;0.00;0.00;;;;;23.55;57.79;99175.69;5050372;28;45403;-56
2022/07/26 03:18:20;;;;;;;;;1.50;1.00;;;;;23.52;58.28;99167.03;5055301;28;45564;-56
2022/07/26 03:20:45;;;;;;;;;0.50;0.50;;;;;23.51;58.53;99165.31;5048898;27;45541;-56
2022/07/26 03:23:10;;;;;;;;;1.00;1.00;;;;;23.48;58.40;99158.38;5056015;28;45396;-56
2022/07/26 03:25:36;;;;;;;;;1.50;1.00;;;;;23.45;58.44;99150.59;5046840;28;45508;-55
2022/07/26 03:28:01;;;;;;;;;1.00;1.00;;;;;23.44;58.02;99172.28;5055673;28;45440;-55
2022/07/26 03:30:27;;;;;;;;;0.50;0.50;;;;;23.40;58.33;99158.25;5044851;28;46174;-55
2022/07/26 03:32:52;;;;;;;;;1.00;1.00;;;;;23.35;58.50;99173.94;5049049;28;45478;-54
2022/07/26 03:35:18;;;;;;;;;0.50;0.50;;;;;23.33;58.48;99162.47;5052311;28;45431;-56
2022/07/26 03:37:43;;;;;;;;;0.00;0.00;;;;;23.30;58.98;99193.19;5055084;28;45447;-55
2022/07/26 03:40:09;;;;;;;;;0.00;0.00;;;;;23.27;59.54;99152.28;5051184;28;46386;-54
2022/07/26 03:42:35;;;;;;;;;1.00;1.00;;;;;23.26;59.08;99164.91;5054072;28;45281;-55
2022/07/26 03:45:00;;;;;;;;;0.00;0.00;;;;;23.24;59.89;99152.56;5049215;28;45372;-55
2022/07/26 03:47:26;;;;;;;;;1.00;1.00;;;;;23.18;59.91;99164.72;5048837;28;45405;-55
2022/07/26 03:49:51;;;;;;;;;0.75;0.00;;;;;23.16;59.81;99153.25;5047284;28;45561;-56
2022/07/26 03:52:16;;;;;;;;;1.00;0.00;;;;;23.14;60.08;99162.47;5050236;28;45443;-56
2022/07/26 03:54:42;;;;;;;;;0.75;0.75;;;;;23.09;60.74;99200.56;5045953;28;45341;-54
2022/07/26 03:57:07;;;;;;;;;0.00;0.00;;;;;23.06;60.44;99170.38;5048373;28;45563;-56
2022/07/26 03:59:33;;;;;;;;;1.00;1.00;;;;;23.02;60.34;99163.56;5042196;28;45734;-56
2022/07/26 04:01:58;;;;;;;;;0.00;0.00;;;;;22.98;61.10;99179.13;5046456;28;45360;-54
2022/07/26 04:04:23;;;;;;;;;1.00;1.00;;;;;22.94;61.11;99181.28;5052783;28;45404;-55
2022/07/26 04:06:49;;;;;;;;;2.00;1.00;;;;;22.95;61.76;99163.31;5039854;28;45389;-56
2022/07/26 04:09:15;;;;;;;;;1.00;1.00;;;;;22.97;61.67;99145.16;5052504;28;45728;-55
2022/07/26 04:11:41;;;;;;;;;3.00;0.25;;;;;22.95;61.44;99156.09;5049237;28;45422;-55
2022/07/26 04:14:08;;;;;;;;;0.20;0.20;;;;;22.92;61.31;99142.91;5050865;28;45575;-55
2022/07/26 04:16:34;;;;;;;;;0.40;0.40;;;;;22.89;62.30;99153.09;5053166;28;45297;-55
2022/07/26 04:19:00;;;;;;;;;0.00;0.00;;;;;22.90;61.79;99177.16;5051465;28;46461;-54
2022/07/26 04:21:26;;;;;;;;;0.75;0.75;;;;;22.86;62.66;99166.81;5050490;28;45852;-56
2022/07/26 04:23:51;;;;;;;;;0.00;0.00;;;;;22.77;62.47;99156.91;5050827;28;45448;-55
2022/07/26 04:26:18;;;;;;;;;0.50;0.50;;;;;22.77;63.00;99176.56;5050305;28;45458;-56
2022/07/26 04:28:43;;;;;;;;;0.40;0.00;;;;;22.73;62.75;99160.81;5047290;28;46251;-55
2022/07/26 04:31:09;;;;;;;;;1.00;1.00;;;;;22.68;63.11;99171.09;5045772;28;45487;-55
2022/07/26 04:33:34;;;;;;;;;0.50;0.50;;;;;22.66;62.61;99159.63;5053559;28;45544;-56
2022/07/26 04:36:01;;;;;;;;;2.00;2.00;;;;;22.63;63.14;99163.44;5046300;28;45436;-55
2022/07/26 04:38:26;;;;;;;;;0.00;0.00;;;;;22.61;62.75;99155.53;5051810;28;45582;-56
2022/07/26 04:40:52;;;;;;;;;1.00;1.00;;;;;22.57;63.86;99140.69;5048837;28;45413;-55
2022/07/26 04:43:18;;;;;;;;;1.00;1.00;;;;;22.60;63.22;99144.94;5052958;28;45486;-55
2022/07/26 04:45:45;;;;;;;;;1.00;1.00;;;;;22.57;63.09;99182.81;5048370;28;45315;-55
2022/07/26 04:48:10;;;;;;;;;0.00;0.00;;;;;22.55;63.74;99158.78;5050867;28;45543;-56
2022/07/26 04:50:36;;;;;;;;;1.00;1.00;;;;;22.55;64.24;99150.72;5049659;28;46121;-56
2022/07/26 04:53:01;;;;;;;;;1.00;1.00;;;;;22.55;63.66;99166.81;5048764;28;45437;-56
2022/07/26 04:55:27;;;;;;;;;1.00;1.00;;;;;22.54;63.50;99158.91;5047765;28;45583;-56
2022/07/26 04:57:52;;;;;;;;;1.00;1.00;;;;;22.51;63.77;99138.53;5046563;28;45383;-57
2022/07/26 05:00:22;;;;;;;;;3.50;1.00;;;;;22.50;63.81;99150.25;5044274;28;45525;-56
2022/07/26 05:02:49;;;;;;;;;0.40;0.40;;;;;22.51;64.26;99141.22;5050088;28;45491;-57
2022/07/26 05:05:14;;;;;;;;;1.00;1.00;;;;;22.50;64.40;99135.97;5051109;28;45468;-57
2022/07/26 05:07:46;;;;;;;;;2.00;0.75;;;;;22.48;64.45;99136.09;5052958;28;45413;-56
2022/07/26 05:10:13;;;;;;;;;1.00;1.00;;;;;22.48;64.43;99141.47;5046230;28;45401;-56
2022/07/26 05:12:38;;;;;;;;;0.20;0.20;;;;;22.46;64.45;99170.31;5051888;28;45241;-56
2022/07/26 05:15:05;;;;;;;;;3.00;2.00;;;;;22.42;65.32;99171.59;5041988;28;45475;-56
2022/07/26 05:17:31;;;;;;;;;1.00;1.00;;;;;22.46;64.30;99147.97;5053474;28;45449;-56
2022/07/26 05:19:57;;;;;;;;;4.00;2.00;;;;;22.47;64.38;99141.59;5047934;28;45422;-55
2022/07/26 05:22:22;;;;;;;;;1.25;1.25;;;;;22.46;63.94;99146.13;5055654;28;45521;-57
2022/07/26 05:24:48;;;;;;;;;1.00;1.00;;;;;22.46;64.78;99164.09;5054393;28;45399;-54
2022/07/26 05:27:13;;;;;;;;;2.00;2.00;;;;;22.43;64.88;99145.56;5055073;28;46173;-52
2022/07/26 05:29:38;;;;;;;;;2.00;2.00;;;;;22.41;64.52;99136.81;5050673;28;45573;-58
2022/07/26 05:32:04;;;;;;;;;2.50;2.50;;;;;22.37;65.03;99149.66;5056679;28;45388;-54
2022/07/26 05:34:30;;;;;;;;;5.25;4.00;;;;;22.37;64.61;99149.66;5050949;28;45428;-56
2022/07/26 05:36:56;;;;;;;;;2.00;2.00;;;;;22.35;64.73;99153.44;5038341;28;46151;-54
2022/07/26 05:39:21;;;;;;;;;4.60;1.20;;;;;22.32;64.03;99143.81;5047237;28;45628;-55
2022/07/26 05:41:46;;;;;;;;;3.00;3.00;;;;;22.29;64.51;99149.44;5044019;28;45412;-54
2022/07/26 05:44:12;;;;;;;;;4.00;4.00;;;;;22.26;65.18;99187.34;5047333;28;45501;-54
2022/07/26 05:46:37;;;;;;;;;3.50;3.00;;;;;22.26;64.88;99137.16;5048943;28;45456;-54
2022/07/26 05:49:04;;;;;;;;;3.00;3.00;;;;;22.26;64.78;99155.97;5053449;28;45562;-56
2022/07/26 05:51:29;;;;;;;;;6.75;6.00;;;;;22.28;64.80;99153.16;5048121;28;45414;-55
2022/07/26 05:53:55;;;;;;;;;5.50;5.00;;;;;22.28;64.34;99156.69;5045290;28;45455;-59
2022/07/26 05:56:21;;;;;;;;;3.75;3.00;;;;;22.26;64.81;99152.44;5044253;28;46217;-55
2022/07/26 05:58:46;;;;;;;;;4.75;3.75;;;;;22.26;64.73;99152.44;5052136;28;45475;-57
2022/07/26 06:01:12;;;;;;;;;4.25;4.00;;;;;22.26;64.13;99144.38;5044462;28;45310;-56
2022/07/26 06:03:37;;;;;;;;;3.00;3.00;;;;;22.26;64.50;99169.41;5049365;28;45409;-57
2022/07/26 06:06:03;;;;;;;;;4.25;3.00;;;;;22.27;63.97;99136.19;5048227;28;45398;-56
2022/07/26 06:08:29;;;;;;;;;2.00;2.00;;;;;22.28;64.51;99164.75;5054816;28;45503;-55
2022/07/26 06:10:54;;;;;;;;;4.00;3.75;;;;;22.27;64.42;99173.78;5046881;28;45432;-56
2022/07/26 06:13:20;;;;;;;;;3.00;1.25;;;;;22.26;64.58;99163.19;5052765;28;45357;-56
2022/07/26 06:15:46;;;;;;;;;4.75;4.75;;;;;22.30;64.73;99145.78;5044963;28;45491;-54
2022/07/26 06:18:12;;;;;;;;;2.20;2.20;;;;;22.33;63.79;99167.00;5055378;28;45411;-52
2022/07/26 06:20:39;;;;;;;;;4.75;4.75;;;;;22.31;64.34;99160.06;5051623;28;45365;-56
2022/07/26 06:23:04;;;;;;;;;6.25;5.75;;;;;22.31;64.43;99142.13;5055598;28;45603;-55
2022/07/26 06:25:30;;;;;;;;;5.25;5.25;;;;;22.33;64.70;99155.41;5047729;28;46237;-56
2022/07/26 06:27:55;;;;;;;;;5.00;4.00;;;;;22.36;64.39;99149.78;5055934;28;45385;-56
2022/07/26 06:30:21;;;;;;;;;4.25;4.00;;;;;22.39;63.87;99160.25;5045168;28;45315;-53
2022/07/26 06:32:46;;;;;;;;;4.25;3.25;;;;;22.39;64.19;99154.88;5041974;28;45441;-55
2022/07/26 06:35:13;;;;;;;;;5.00;5.00;;;;;22.38;64.13;99154.03;5048603;28;45669;-54
2022/07/26 06:37:40;;;;;;;;;4.00;4.00;;;;;22.36;64.09;99145.25;5055540;28;45554;-55
2022/07/26 06:40:08;;;;;;;;;7.50;6.00;;;;;22.35;64.61;99181.16;5048852;28;45457;-55
2022/07/26 06:42:34;;;;;;;;;2.25;2.25;;;;;22.35;63.63;99169.56;5051587;28;45453;-56
2022/07/26 06:45:00;;;;;;;;;6.75;6.25;;;;;22.35;64.02;99153.44;5051575;28;46344;-51
2022/07/26 06:47:26;;;;;;;;;4.00;4.00;;;;;22.31;64.72;99185.09;5052842;28;45463;-54
2022/07/26 06:49:52;;;;;;;;;4.00;3.50;;;;;22.30;64.50;99175.34;5050746;28;45265;-54
2022/07/26 06:52:17;;;;;;;;;6.75;5.25;;;;;22.29;64.53;99163.72;5052016;28;45405;-55
2022/07/26 06:54:43;;;;;;;;;4.25;4.00;;;;;22.32;64.05;99149.19;5047925;28;46488;-55
2022/07/26 06:57:08;;;;;;;;;7.00;7.00;;;;;22.34;64.94;99159.81;5051071;28;45504;-55
2022/07/26 06:59:34;;;;;;;;;6.25;5.25;;;;;22.40;64.49;99152.06;5053013;28;45545;-54
2022/07/26 07:02:00;;;;;;;;;8.75;7.50;;;;;22.38;64.20;99172.84;5045229;28;45460;-55
2022/07/26 07:04:30;;;;;;;;;3.75;3.00;;;;;22.32;64.69;99177.88;5051539;28;45380;-54
2022/07/26 07:07:01;;;;;;;;;7.00;4.00;;;;;22.29;64.65;99158.38;5054998;28;45519;-54
2022/07/26 07:09:29;;;;;;;;;4.25;4.25;;;;;22.31;64.75;99168.13;5051681;28;45527;-54
2022/07/26 07:11:54;;;;;;;;;4.75;4.75;;;;;22.30;64.39;99172.66;5054277;28;45411;-53
2022/07/26 07:14:20;;;;;;;;;7.00;6.25;;;;;22.32;64.31;99154.56;5049194;28;46361;-53
2022/07/26 07:16:45;;;;;;;;;8.50;7.00;;;;;22.30;64.19;99172.66;5051784;28;45362;-54
2022/07/26 07:19:11;;;;;;;;;5.00;3.50;;;;;22.27;64.68;99146.94;5051967;28;45357;-54
2022/07/26 07:21:36;;;;;;;;;4.75;3.25;;;;;22.27;64.55;99162.19;5045796;28;45312;-53
2022/07/26 07:24:02;;;;;;;;;4.75;4.75;;;;;22.31;64.30;99149.31;5051448;28;45437;-52
2022/07/26 07:26:27;;;;;;;;;7.50;5.25;;;;;22.29;64.29;99154.81;5052038;28;45404;-50
2022/07/26 07:28:53;;;;;;;;;3.25;3.25;;;;;22.29;64.21;99150.31;5052040;28;45416;-53
2022/07/26 07:31:18;;;;;;;;;5.00;3.00;;;;;22.31;64.42;99152.00;5047654;28;45329;-53
2022/07/26 07:33:43;;;;;;;;;5.50;4.25;;;;;22.32;63.77;99153.72;5049620;28;46173;-53
2022/07/26 07:36:09;;;;;;;;;5.50;4.25;;;;;22.37;64.14;99138.06;5047800;28;45406;-53
2022/07/26 07:38:34;;;;;;;;;4.75;4.50;;;;;22.40;63.48;99144.00;5048637;28;45365;-53
2022/07/26 07:41:00;;;;;;;;;3.00;3.00;;;;;22.48;63.70;99132.56;5049829;28;45404;-54
2022/07/26 07:43:25;;;;;;;;;5.50;3.00;;;;;22.50;63.57;99139.50;5046372;28;45476;-53
2022/07/26 07:45:51;;;;;;;;;4.00;4.00;;;;;22.55;63.08;99144.47;5050583;28;45384;-52
2022/07/26 07:48:16;;;;;;;;;2.00;2.00;;;;;22.58;62.75;99153.13;5044672;28;45348;-52
2022/07/26 07:50:41;;;;;;;;;3.75;3.75;;;;;22.59;62.86;99135.16;5048595;28;45431;-53
2022/07/26 07:53:07;;;;;;;;;5.00;5.00;;;;;22.58;62.68;99147.75;5048287;28;45626;-53
2022/07/26 07:55:32;;;;;;;;;4.00;4.00;;;;;22.56;63.23;99136.28;5051296;28;45460;-51
2022/07/26 07:57:58;;;;;;;;;4.25;3.25;;;;;22.52;63.10;99150.97;5053934;28;45455;-53
2022/07/26 08:00:24;;;;;;;;;6.50;5.25;;;;;22.52;62.94;99139.38;5050996;28;45558;-53
2022/07/26 08:02:49;;;;;;;;;5.00;5.00;;;;;22.52;63.19;99144.75;5053747;28;46536;-53
2022/07/26 08:05:15;;;;;;;;;6.00;6.00;;;;;22.55;63.42;99145.34;5050291;28;45406;-52
2022/07/26 08:07:40;;;;;;;;;7.00;7.00;;;;;22.62;62.89;99140.28;5052668;28;45909;-53
2022/07/26 08:10:06;;;;;;;;;5.25;4.00;;;;;22.69;62.89;99135.19;5044992;28;45307;-54
2022/07/26 08:12:31;;;;;;;;;4.00;4.00;;;;;22.70;62.96;99126.97;5047263;28;46506;-54
2022/07/26 08:14:57;;;;;;;;;2.00;2.00;;;;;22.72;62.49;99110.72;5050185;28;45346;-52
2022/07/26 08:17:23;;;;;;;;;6.75;6.00;;;;;22.76;61.86;99139.88;5050035;28;45438;-52
2022/07/26 08:19:48;;;;;;;;;6.00;6.00;;;;;22.81;62.11;99139.47;5047861;28;45373;-53
2022/07/26 08:22:13;;;;;;;;;4.50;4.50;;;;;22.85;61.97;99132.84;5052595;28;48367;-51
2022/07/26 08:24:39;;;;;;;;;5.75;5.25;;;;;22.91;62.07;99129.59;5047569;28;45458;-53
2022/07/26 08:27:04;;;;;;;;;8.00;6.00;;;;;23.00;61.91;99120.69;5053896;28;45275;-54
2022/07/26 08:29:30;;;;;;;;;2.75;2.75;;;;;23.08;61.71;99120.00;5047729;27;45480;-54
2022/07/26 08:31:55;;;;;;;;;5.00;5.00;;;;;23.14;60.78;99109.50;5053064;28;46027;-52
2022/07/26 08:34:21;;;;;;;;;5.00;5.00;;;;;23.21;60.79;99115.19;5048438;28;45500;-52
2022/07/26 08:36:47;;;;;;;;;7.00;5.50;;;;;23.30;60.57;99119.72;5049063;28;45445;-52
2022/07/26 08:39:12;;;;;;;;;4.75;4.75;;;;;23.39;59.88;99112.63;5049359;28;45418;-52
2022/07/26 08:41:39;;;;;;;;;3.00;3.00;;;;;23.40;60.33;99104.44;5047667;28;45480;-54
2022/07/26 08:44:07;;;;;;;;;7.20;5.40;;;;;23.43;59.86;99101.47;5051889;28;45348;-53
2022/07/26 08:46:35;;;;;;;;;5.00;5.00;;;;;23.54;59.66;99092.41;5045507;28;45385;-51
2022/07/26 08:49:01;;;;;;;;;7.75;6.75;;;;;23.58;59.20;99089.28;5046934;28;45430;-53
2022/07/26 08:51:26;;;;;;;;;5.25;5.00;;;;;23.63;58.99;99100.44;5050124;28;45415;-51
2022/07/26 08:53:57;;;;;;;;;8.00;5.00;;;;;23.67;58.67;99071.41;5045972;28;45500;-55
2022/07/26 08:56:23;;;;;;;;;5.00;5.00;;;;;23.75;59.06;99100.28;5043443;28;45421;-53
2022/07/26 08:58:48;;;;;;;;;3.25;3.25;;;;;23.84;58.33;99123.66;5054907;28;45275;-53
2022/07/26 09:01:14;;;;;;;;;3.00;3.00;;;;;23.83;58.06;99105.78;5055766;28;45925;-52
2022/07/26 09:03:41;;;;;;;;;4.25;3.00;;;;;23.82;57.95;99101.41;5054910;28;45432;-53
2022/07/26 09:06:12;;;;;;;;;4.25;4.25;;;;;23.82;58.08;99104.09;5054296;28;45397;-52
2022/07/26 09:08:37;;;;;;;;;5.00;5.00;;;;;23.82;58.18;99087.94;5055460;28;45436;-53
2022/07/26 09:11:23;;;;;;;;;4.75;4.75;;;;;23.89;57.68;99099.84;5050612;28;45478;-53
2022/07/26 09:13:56;;;;;;;;;5.00;4.20;;;;;23.89;57.44;99114.16;5054213;28;45484;-53
2022/07/26 09:16:22;;;;;;;;;2.75;2.00;;;;;23.91;57.60;99120.25;5049417;28;45353;-53
2022/07/26 09:18:47;;;;;;;;;4.50;4.50;;;;;23.91;56.98;99109.47;5054867;28;45342;-54
2022/07/26 09:21:36;;;;;;;;;4.00;3.25;;;;;23.94;57.14;99111.03;5051922;28;45900;-53
2022/07/26 09:24:02;;;;;;;;;4.60;4.00;;;;;23.99;57.36;99130.25;5053241;28;45515;-54
2022/07/26 09:26:27;;;;;;;;;5.50;4.75;;;;;23.99;57.10;99114.94;5066562;28;45458;-54
2022/07/26 09:29:07;;;;;;;;;5.25;5.25;;;;;24.00;57.01;99081.63;5054306;28;45399;-54
2022/07/26 09:31:34;;;;;;;;;3.00;3.00;;;;;24.00;56.86;99105.88;5040285;28;45637;-51
2022/07/26 09:34:00;;;;;;;;;2.00;2.00;;;;;23.98;56.76;99089.00;5037201;28;45338;-53
2022/07/26 09:36:26;;;;;;;;;5.50;5.50;;;;;23.97;56.64;99087.31;5037187;28;45306;-55
2022/07/26 09:38:58;;;;;;;;;6.00;6.00;;;;;24.05;56.59;99091.13;5036990;28;45447;-54
2022/07/26 09:41:29;;;;;;;;;5.00;3.00;;;;;24.11;55.71;99083.31;5036702;28;46359;-55
2022/07/26 09:43:59;;;;;;;;;5.20;3.60;;;;;24.12;56.00;99095.78;5035364;28;45408;-54
2022/07/26 09:46:26;;;;;;;;;2.25;2.00;;;;;24.13;56.16;99093.94;5036670;28;45317;-56
2022/07/26 09:48:54;;;;;;;;;5.00;4.00;;;;;24.19;55.71;99080.72;5035795;28;45536;-56
2022/07/26 09:51:46;;;;;;;;;3.75;3.50;;;;;24.25;55.43;99071.22;5036232;28;45357;-56
2022/07/26 09:54:34;;;;;;;;;4.20;4.20;;;;;24.31;54.89;99078.69;5045012;28;45548;-56
2022/07/26 09:57:01;;;;;;;;;4.25;3.25;;;;;24.39;55.16;99081.50;5056444;28;45370;-53
2022/07/26 09:59:27;;;;;;;;;7.00;4.00;;;;;24.43;54.97;99088.31;5055136;27;45359;-54
2022/07/26 10:01:56;;;;;;;;;6.25;4.75;;;;;24.53;54.53;99086.41;5056023;28;46756;-56
2022/07/26 10:04:23;;;;;;;;;2.80;2.80;;;;;24.59;53.81;99088.50;5054657;28;45446;-52
2022/07/26 10:06:49;;;;;;;;;3.50;3.50;;;;;24.60;54.06;99094.75;5055758;28;45368;-56
2022/07/26 10:09:15;;;;;;;;;4.50;4.50;;;;;24.62;54.00;99069.31;5055886;28;45552;-54
2022/07/26 10:11:43;;;;;;;;;3.75;3.75;;;;;24.66;53.69;99092.25;5056085;28;46465;-56
2022/07/26 10:14:33;;;;;;;;;3.20;3.20;;;;;24.68;53.38;99095.66;5056126;28;45397;-54
2022/07/26 10:17:00;;;;;;;;;1.75;1.75;;;;;24.74;53.07;99053.78;5054794;28;45451;-55
2022/07/26 10:19:40;;;;;;;;;6.00;5.00;;;;;24.76;53.58;99065.25;5056307;28;45266;-53
2022/07/26 10:22:24;;;;;;;;;4.00;3.00;;;;;24.81;53.21;99079.09;5055192;28;45609;-54
2022/07/26 10:24:50;;;;;;;;;2.80;0.80;;;;;24.83;52.76;99100.53;5056280;28;45589;-55
2022/07/26 10:27:38;;;;;;;;;3.25;3.25;;;;;24.85;52.60;99056.22;5056286;28;45517;-55
2022/07/26 10:30:19;;;;;;;;;6.25;5.00;;;;;24.88;53.19;99090.16;5055217;28;45421;-55
2022/07/26 10:32:50;;;;;;;;;5.00;5.00;;;;;24.94;53.07;99036.47;5056017;28;46495;-55
2022/07/26 10:35:43;;;;;;;;;7.40;5.60;;;;;24.99;52.66;99049.47;5056129;28;45326;-54
2022/07/26 10:38:08;;;;;;;;;6.25;4.50;;;;;25.09;52.48;99061.06;5056014;28;45357;-53
2022/07/26 10:40:35;;;;;;;;;4.25;3.00;;;;;25.14;52.38;99076.75;5055907;28;45365;-51
2022/07/26 10:43:10;;;;;;;;;3.50;3.00;;;;;25.16;51.85;99047.78;5055201;28;45541;-53
2022/07/26 10:45:36;;;;;;;;;4.20;2.80;;;;;25.19;51.63;99050.16;5055447;28;45395;-54
2022/07/26 10:48:13;;;;;;;;;3.60;2.80;;;;;25.20;51.34;99090.50;5055739;28;45428;-53
2022/07/26 10:50:40;;;;;;;;;4.50;4.00;;;;;25.21;50.71;99053.56;5055801;28;45225;-57
2022/07/26 10:53:08;;;;;;;;;2.00;2.00;;;;;25.24;50.45;99094.59;5050559;27;46136;-55
2022/07/26 10:55:54;;;;;;;;;1.80;1.80;;;;;25.30;49.88;99064.25;5054329;28;45442;-55
2022/07/26 10:58:24;;;;;;;;;3.00;3.00;;;;;25.34;50.30;99019.75;5056003;28;45317;-55
2022/07/26 11:01:08;;;;;;;;;3.00;3.00;;;;;25.43;50.21;99041.44;5055111;28;45447;-56
2022/07/26 11:03:39;;;;;;;;;4.75;3.50;;;;;25.47;50.43;99022.03;5055585;28;46216;-54
2022/07/26 11:06:14;;;;;;;;;4.40;4.40;;;;;25.60;50.04;99062.13;5055355;28;45472;-55
2022/07/26 11:08:40;;;;;;;;;2.20;2.20;;;;;25.61;49.54;99047.63;5055359;28;45396;-54
2022/07/26 11:11:06;;;;;;;;;4.00;4.00;;;;;25.59;49.50;99046.94;5055892;28;45357;-55
2022/07/26 11:13:32;;;;;;;;;6.00;4.00;;;;;25.62;49.05;99001.59;5055626;28;45594;-55
2022/07/26 11:16:03;;;;;;;;;2.80;2.00;;;;;25.59;48.94;99046.94;5055006;28;45364;-56
2022/07/26 11:18:31;;;;;;;;;3.00;3.00;;;;;25.63;48.46;99053.75;5054217;27;45695;-54
2022/07/26 11:21:08;;;;;;;;;4.00;3.00;;;;;25.68;48.39;99013.59;5055374;28;45417;-56
2022/07/26 11:23:35;;;;;;;;;3.75;3.75;;;;;25.78;48.43;99018.91;5055060;28;47278;-55
2022/07/26 11:26:08;;;;;;;;;3.20;2.80;;;;;25.89;48.37;99011.38;5054874;28;45364;-55
2022/07/26 11:28:45;;;;;;;;;4.75;3.00;;;;;25.96;47.87;99006.16;5054775;28;45471;-55
2022/07/26 11:31:11;;;;;;;;;3.75;3.00;;;;;26.03;47.54;99024.25;5053895;28;45440;-55
2022/07/26 11:33:38;;;;;;;;;4.75;3.50;;;;;26.10;47.93;99031.72;5054811;28;46428;-54